Toledo, Iowa
Current Conditions -  °F | °C
As of 8:53 AM on Sunday 21 Dec 2014 (Local Time) from KMIW Reporting Station
Haze Haze  
Wind Chill: -2°   Ceiling: 800
Heat Index:   Visibility: 4mi
Dew Point:   Wind: 15mph
Humidity: 93%   Direction: 170°S
Pressure: 29.96"   Gusts: NA
Location:  42°N, 92.58°W
Report Text: KMIW 211453Z AUTO 17013KT 4SM BR OVC008 03/02 A2996 RMK AO2 SLP154 T00280017 56013
Loading
Personal Weather Stations






























Interactive Weather Map New forecast layout! Learn more

10-Day Weather Forecast

Advertisements
Track Severe Weather on mobile